sensor_id;sensor_type;location;lat;lon;timestamp;pressure;altitude;pressure_sealevel;temperature;humidity
6218;BME280;3142;48.206;11.550;2023-11-19T00:02:12;95840.09;;;6.29;94.33
6218;BME280;3142;48.206;11.550;2023-11-19T00:04:39;95835.88;;;6.28;94.02
6218;BME280;3142;48.206;11.550;2023-11-19T00:07:05;95832.53;;;6.19;93.30
6218;BME280;3142;48.206;11.550;2023-11-19T00:09:33;95824.25;;;6.15;94.31
6218;BME280;3142;48.206;11.550;2023-11-19T00:12:02;95822.78;;;6.21;94.69
6218;BME280;3142;48.206;11.550;2023-11-19T00:14:30;95806.16;;;6.30;94.40
6218;BME280;3142;48.206;11.550;2023-11-19T00:16:57;95800.50;;;6.27;94.19
6218;BME280;3142;48.206;11.550;2023-11-19T00:19:23;95794.00;;;6.31;94.58
6218;BME280;3142;48.206;11.550;2023-11-19T00:21:50;95789.94;;;6.28;94.22
6218;BME280;3142;48.206;11.550;2023-11-19T00:24:16;95799.69;;;6.26;94.41
6218;BME280;3142;48.206;11.550;2023-11-19T00:26:43;95789.81;;;6.21;94.03
6218;BME280;3142;48.206;11.550;2023-11-19T00:29:10;95800.00;;;6.31;94.96
6218;BME280;3142;48.206;11.550;2023-11-19T00:31:37;95792.66;;;6.35;94.21
6218;BME280;3142;48.206;11.550;2023-11-19T00:34:04;95794.28;;;6.36;94.24
6218;BME280;3142;48.206;11.550;2023-11-19T00:36:31;95780.28;;;6.45;94.96
6218;BME280;3142;48.206;11.550;2023-11-19T00:38:57;95778.75;;;6.50;94.01
6218;BME280;3142;48.206;11.550;2023-11-19T00:41:24;95781.63;;;6.56;94.11
6218;BME280;3142;48.206;11.550;2023-11-19T00:43:50;95778.06;;;6.57;94.07
6218;BME280;3142;48.206;11.550;2023-11-19T00:46:17;95769.59;;;6.63;94.56
6218;BME280;3142;48.206;11.550;2023-11-19T00:48:46;95762.41;;;6.65;93.58
6218;BME280;3142;48.206;11.550;2023-11-19T00:51:12;95759.66;;;6.66;94.71
6218;BME280;3142;48.206;11.550;2023-11-19T00:53:39;95756.69;;;6.69;93.98
6218;BME280;3142;48.206;11.550;2023-11-19T00:56:06;95756.38;;;6.72;94.53
6218;BME280;3142;48.206;11.550;2023-11-19T00:58:33;95757.63;;;6.76;94.34
6218;BME280;3142;48.206;11.550;2023-11-19T01:00:59;95744.63;;;6.76;94.04
6218;BME280;3142;48.206;11.550;2023-11-19T01:03:26;95741.66;;;6.79;94.26
6218;BME280;3142;48.206;11.550;2023-11-19T01:05:53;95750.91;;;6.82;94.99
6218;BME280;3142;48.206;11.550;2023-11-19T01:08:20;95750.56;;;6.85;94.95
6218;BME280;3142;48.206;11.550;2023-11-19T01:10:46;95747.28;;;6.91;94.63
6218;BME280;3142;48.206;11.550;2023-11-19T01:13:13;95739.28;;;6.93;94.68
6218;BME280;3142;48.206;11.550;2023-11-19T01:15:39;95743.16;;;6.97;94.91
6218;BME280;3142;48.206;11.550;2023-11-19T01:18:06;95742.00;;;6.99;95.19
6218;BME280;3142;48.206;11.550;2023-11-19T01:20:34;95737.75;;;6.98;94.98
6218;BME280;3142;48.206;11.550;2023-11-19T01:23:02;95728.34;;;6.97;95.62
6218;BME280;3142;48.206;11.550;2023-11-19T01:25:29;95725.94;;;6.96;95.16
6218;BME280;3142;48.206;11.550;2023-11-19T01:27:55;95723.88;;;6.91;95.59
6218;BME280;3142;48.206;11.550;2023-11-19T01:30:23;95720.28;;;6.92;95.71
6218;BME280;3142;48.206;11.550;2023-11-19T01:32:50;95725.28;;;6.94;95.89
6218;BME280;3142;48.206;11.550;2023-11-19T01:35:16;95723.94;;;6.98;95.84
6218;BME280;3142;48.206;11.550;2023-11-19T01:37:43;95712.22;;;7.02;95.88
6218;BME280;3142;48.206;11.550;2023-11-19T01:40:11;95720.66;;;7.04;95.98
6218;BME280;3142;48.206;11.550;2023-11-19T01:42:38;95720.47;;;7.05;95.68
6218;BME280;3142;48.206;11.550;2023-11-19T01:45:05;95713.94;;;7.09;96.18
6218;BME280;3142;48.206;11.550;2023-11-19T01:47:33;95705.94;;;7.11;97.14
6218;BME280;3142;48.206;11.550;2023-11-19T01:50:01;95697.16;;;7.12;96.32
6218;BME280;3142;48.206;11.550;2023-11-19T01:52:32;95695.84;;;7.16;96.87
6218;BME280;3142;48.206;11.550;2023-11-19T01:55:01;95694.47;;;7.20;97.37
6218;BME280;3142;48.206;11.550;2023-11-19T01:57:30;95695.53;;;7.26;97.93
6218;BME280;3142;48.206;11.550;2023-11-19T01:59:56;95688.84;;;7.31;98.00
6218;BME280;3142;48.206;11.550;2023-11-19T02:02:23;95687.13;;;7.38;99.26
6218;BME280;3142;48.206;11.550;2023-11-19T02:04:52;95683.19;;;7.42;99.28
6218;BME280;3142;48.206;11.550;2023-11-19T02:07:19;95676.44;;;7.48;99.71
6218;BME280;3142;48.206;11.550;2023-11-19T02:09:46;95684.34;;;7.55;99.80
6218;BME280;3142;48.206;11.550;2023-11-19T02:12:12;95678.22;;;7.62;100.00
6218;BME280;3142;48.206;11.550;2023-11-19T02:14:40;95672.44;;;7.67;99.05
6218;BME280;3142;48.206;11.550;2023-11-19T02:17:07;95663.13;;;7.72;100.00
6218;BME280;3142;48.206;11.550;2023-11-19T02:19:33;95661.13;;;7.75;100.00
6218;BME280;3142;48.206;11.550;2023-11-19T02:22:00;95656.38;;;7.78;100.00
6218;BME280;3142;48.206;11.550;2023-11-19T02:24:27;95643.81;;;7.82;100.00
6218;BME280;3142;48.206;11.550;2023-11-19T02:27:02;95638.03;;;7.86;100.00
6218;BME280;3142;48.206;11.550;2023-11-19T02:29:32;95644.25;;;7.85;100.00
6218;BME280;3142;48.206;11.550;2023-11-19T02:32:00;95630.03;;;7.88;100.00
6218;BME280;3142;48.206;11.550;2023-11-19T02:34:28;95634.25;;;7.89;100.00
6218;BME280;3142;48.206;11.550;2023-11-19T02:36:55;95629.84;;;7.89;100.00
6218;BME280;3142;48.206;11.550;2023-11-19T02:39:21;95621.66;;;7.92;100.00
6218;BME280;3142;48.206;11.550;2023-11-19T02:41:48;95623.28;;;7.93;100.00
6218;BME280;3142;48.206;11.550;2023-11-19T02:44:16;95623.91;;;7.95;100.00
6218;BME280;3142;48.206;11.550;2023-11-19T02:46:44;95624.53;;;7.97;100.00
6218;BME280;3142;48.206;11.550;2023-11-19T02:49:11;95621.56;;;8.00;100.00
6218;BME280;3142;48.206;11.550;2023-11-19T02:51:37;95622.16;;;8.02;100.00
6218;BME280;3142;48.206;11.550;2023-11-19T02:54:04;95606.53;;;8.02;100.00
6218;BME280;3142;48.206;11.550;2023-11-19T02:56:30;95610.75;;;8.03;100.00
6218;BME280;3142;48.206;11.550;2023-11-19T02:59:01;95595.75;;;8.06;100.00
6218;BME280;3142;48.206;11.550;2023-11-19T03:01:32;95598.00;;;8.09;100.00
6218;BME280;3142;48.206;11.550;2023-11-19T03:04:02;95590.53;;;8.06;100.00
6218;BME280;3142;48.206;11.550;2023-11-19T03:06:29;95590.78;;;8.11;100.00
6218;BME280;3142;48.206;11.550;2023-11-19T03:08:55;95582.97;;;8.11;100.00
6218;BME280;3142;48.206;11.550;2023-11-19T03:11:22;95583.59;;;8.13;100.00
6218;BME280;3142;48.206;11.550;2023-11-19T03:13:49;95570.78;;;8.18;100.00
6218;BME280;3142;48.206;11.550;2023-11-19T03:16:16;95569.41;;;8.22;100.00
6218;BME280;3142;48.206;11.550;2023-11-19T03:18:43;95580.09;;;8.27;100.00
6218;BME280;3142;48.206;11.550;2023-11-19T03:21:10;95582.13;;;8.31;100.00
6218;BME280;3142;48.206;11.550;2023-11-19T03:23:37;95579.97;;;8.35;100.00
6218;BME280;3142;48.206;11.550;2023-11-19T03:26:05;95571.41;;;8.41;100.00
6218;BME280;3142;48.206;11.550;2023-11-19T03:28:31;95579.28;;;8.48;100.00
6218;BME280;3142;48.206;11.550;2023-11-19T03:30:58;95574.69;;;8.50;100.00
6218;BME280;3142;48.206;11.550;2023-11-19T03:33:24;95574.50;;;8.51;100.00
6218;BME280;3142;48.206;11.550;2023-11-19T03:35:53;95566.69;;;8.51;100.00
6218;BME280;3142;48.206;11.550;2023-11-19T03:38:20;95577.53;;;8.55;100.00
6218;BME280;3142;48.206;11.550;2023-11-19T03:40:47;95580.38;;;8.60;100.00
6218;BME280;3142;48.206;11.550;2023-11-19T03:43:14;95574.34;;;8.59;100.00
6218;BME280;3142;48.206;11.550;2023-11-19T03:45:41;95584.22;;;8.64;100.00
6218;BME280;3142;48.206;11.550;2023-11-19T03:48:07;95584.84;;;8.66;100.00
6218;BME280;3142;48.206;11.550;2023-11-19T03:50:33;95583.03;;;8.67;100.00
6218;BME280;3142;48.206;11.550;2023-11-19T03:53:00;95572.81;;;8.65;100.00
6218;BME280;3142;48.206;11.550;2023-11-19T03:55:29;95588.88;;;8.69;100.00
6218;BME280;3142;48.206;11.550;2023-11-19T03:57:56;95577.66;;;8.75;100.00
6218;BME280;3142;48.206;11.550;2023-11-19T04:00:22;95571.91;;;8.86;100.00
6218;BME280;3142;48.206;11.550;2023-11-19T04:02:49;95570.97;;;8.94;100.00
6218;BME280;3142;48.206;11.550;2023-11-19T04:05:15;95572.59;;;9.01;100.00
6218;BME280;3142;48.206;11.550;2023-11-19T04:07:44;95577.41;;;9.04;100.00
6218;BME280;3142;48.206;11.550;2023-11-19T04:10:10;95576.66;;;9.10;100.00
6218;BME280;3142;48.206;11.550;2023-11-19T04:12:38;95575.28;;;9.14;100.00
6218;BME280;3142;48.206;11.550;2023-11-19T04:15:06;95573.28;;;9.16;100.00
6218;BME280;3142;48.206;11.550;2023-11-19T04:17:32;95576.50;;;9.18;100.00
6218;BME280;3142;48.206;11.550;2023-11-19T04:19:59;95573.72;;;9.20;100.00
6218;BME280;3142;48.206;11.550;2023-11-19T04:22:25;95584.94;;;9.20;100.00
6218;BME280;3142;48.206;11.550;2023-11-19T04:24:52;95579.94;;;9.26;100.00
6218;BME280;3142;48.206;11.550;2023-11-19T04:27:18;95585.38;;;9.24;100.00
6218;BME280;3142;48.206;11.550;2023-11-19T04:29:46;95581.56;;;9.27;100.00
6218;BME280;3142;48.206;11.550;2023-11-19T04:32:14;95582.97;;;9.29;100.00
6218;BME280;3142;48.206;11.550;2023-11-19T04:34:40;95581.34;;;9.28;100.00
6218;BME280;3142;48.206;11.550;2023-11-19T04:37:06;95572.91;;;9.26;100.00
6218;BME280;3142;48.206;11.550;2023-11-19T04:39:33;95583.78;;;9.30;100.00
6218;BME280;3142;48.206;11.550;2023-11-19T04:41:59;95576.94;;;9.29;100.00
6218;BME280;3142;48.206;11.550;2023-11-19T04:44:26;95585.56;;;9.29;100.00
6218;BME280;3142;48.206;11.550;2023-11-19T04:46:54;95582.41;;;9.34;100.00
6218;BME280;3142;48.206;11.550;2023-11-19T04:49:20;95579.00;;;9.33;100.00
6218;BME280;3142;48.206;11.550;2023-11-19T04:51:46;95585.00;;;9.34;100.00
6218;BME280;3142;48.206;11.550;2023-11-19T04:54:13;95593.66;;;9.34;100.00
6218;BME280;3142;48.206;11.550;2023-11-19T04:56:40;95588.44;;;9.34;100.00
6218;BME280;3142;48.206;11.550;2023-11-19T04:59:06;95592.84;;;9.34;100.00
6218;BME280;3142;48.206;11.550;2023-11-19T05:01:34;95598.66;;;9.36;100.00
6218;BME280;3142;48.206;11.550;2023-11-19T05:04:02;95595.88;;;9.37;100.00
6218;BME280;3142;48.206;11.550;2023-11-19T05:06:29;95593.25;;;9.37;100.00
6218;BME280;3142;48.206;11.550;2023-11-19T05:08:56;95609.53;;;9.39;100.00
6218;BME280;3142;48.206;11.550;2023-11-19T05:11:22;95602.50;;;9.40;100.00
6218;BME280;3142;48.206;11.550;2023-11-19T05:13:49;95595.88;;;9.44;100.00
6218;BME280;3142;48.206;11.550;2023-11-19T05:16:15;95595.50;;;9.47;100.00
6218;BME280;3142;48.206;11.550;2023-11-19T05:18:43;95597.91;;;9.48;100.00
6218;BME280;3142;48.206;11.550;2023-11-19T05:21:10;95604.97;;;9.55;100.00
6218;BME280;3142;48.206;11.550;2023-11-19T05:23:37;95602.16;;;9.56;100.00
6218;BME280;3142;48.206;11.550;2023-11-19T05:26:05;95608.78;;;9.59;100.00
6218;BME280;3142;48.206;11.550;2023-11-19T05:28:31;95608.78;;;9.59;100.00
6218;BME280;3142;48.206;11.550;2023-11-19T05:30:58;95617.63;;;9.58;100.00
6218;BME280;3142;48.206;11.550;2023-11-19T05:33:24;95613.03;;;9.60;100.00
6218;BME280;3142;48.206;11.550;2023-11-19T05:35:51;95613.03;;;9.60;100.00
6218;BME280;3142;48.206;11.550;2023-11-19T05:38:19;95605.00;;;9.61;100.00
6218;BME280;3142;48.206;11.550;2023-11-19T05:40:46;95607.22;;;9.64;100.00
6218;BME280;3142;48.206;11.550;2023-11-19T05:43:13;95606.22;;;9.65;100.00
6218;BME280;3142;48.206;11.550;2023-11-19T05:45:41;95612.25;;;9.66;100.00
6218;BME280;3142;48.206;11.550;2023-11-19T05:48:08;95609.22;;;9.69;100.00
6218;BME280;3142;48.206;11.550;2023-11-19T05:50:35;95612.44;;;9.71;100.00
6218;BME280;3142;48.206;11.550;2023-11-19T05:53:01;95608.84;;;9.72;100.00
6218;BME280;3142;48.206;11.550;2023-11-19T05:55:33;95609.63;;;9.72;100.00
6218;BME280;3142;48.206;11.550;2023-11-19T05:57:59;95604.41;;;9.72;100.00
6218;BME280;3142;48.206;11.550;2023-11-19T06:00:26;95603.25;;;9.75;100.00
6218;BME280;3142;48.206;11.550;2023-11-19T06:02:52;95600.63;;;9.75;100.00
6218;BME280;3142;48.206;11.550;2023-11-19T06:05:19;95601.44;;;9.75;100.00
6218;BME280;3142;48.206;11.550;2023-11-19T06:07:45;95599.81;;;9.74;100.00
6218;BME280;3142;48.206;11.550;2023-11-19T06:10:12;95600.81;;;9.73;100.00
6218;BME280;3142;48.206;11.550;2023-11-19T06:12:43;95598.81;;;9.75;100.00
6218;BME280;3142;48.206;11.550;2023-11-19T06:15:11;95610.28;;;9.74;100.00
6218;BME280;3142;48.206;11.550;2023-11-19T06:17:38;95619.72;;;9.75;100.00
6218;BME280;3142;48.206;11.550;2023-11-19T06:20:06;95606.25;;;9.78;100.00
6218;BME280;3142;48.206;11.550;2023-11-19T06:22:32;95611.69;;;9.77;100.00
6218;BME280;3142;48.206;11.550;2023-11-19T06:24:59;95607.66;;;9.81;100.00
6218;BME280;3142;48.206;11.550;2023-11-19T06:27:25;95605.06;;;9.81;100.00
6218;BME280;3142;48.206;11.550;2023-11-19T06:29:53;95604.03;;;9.82;100.00
6218;BME280;3142;48.206;11.550;2023-11-19T06:32:20;95609.69;;;9.86;100.00
6218;BME280;3142;48.206;11.550;2023-11-19T06:34:47;95607.25;;;9.84;100.00
6218;BME280;3142;48.206;11.550;2023-11-19T06:37:13;95611.28;;;9.87;100.00
6218;BME280;3142;48.206;11.550;2023-11-19T06:39:40;95607.50;;;9.89;100.00
6218;BME280;3142;48.206;11.550;2023-11-19T06:42:06;95607.28;;;9.91;100.00
6218;BME280;3142;48.206;11.550;2023-11-19T06:44:33;95609.72;;;9.92;100.00
6218;BME280;3142;48.206;11.550;2023-11-19T06:47:01;95605.88;;;9.95;100.00
6218;BME280;3142;48.206;11.550;2023-11-19T06:49:27;95608.09;;;9.98;100.00
6218;BME280;3142;48.206;11.550;2023-11-19T06:51:54;95620.97;;;9.99;100.00
6218;BME280;3142;48.206;11.550;2023-11-19T06:54:20;95618.56;;;9.98;100.00
6218;BME280;3142;48.206;11.550;2023-11-19T06:56:48;95624.00;;;10.03;100.00
6218;BME280;3142;48.206;11.550;2023-11-19T06:59:14;95613.97;;;10.06;100.00
6218;BME280;3142;48.206;11.550;2023-11-19T07:01:41;95613.75;;;10.08;100.00
6218;BME280;3142;48.206;11.550;2023-11-19T07:04:11;95619.19;;;10.06;100.00
6218;BME280;3142;48.206;11.550;2023-11-19T07:06:38;95625.00;;;10.08;100.00
6218;BME280;3142;48.206;11.550;2023-11-19T07:09:06;95629.25;;;10.09;100.00
6218;BME280;3142;48.206;11.550;2023-11-19T07:11:35;95630.44;;;10.14;100.00
6218;BME280;3142;48.206;11.550;2023-11-19T07:14:04;95626.84;;;10.15;100.00
6218;BME280;3142;48.206;11.550;2023-11-19T07:16:31;95623.84;;;10.18;100.00
6218;BME280;3142;48.206;11.550;2023-11-19T07:18:58;95632.09;;;10.21;100.00
6218;BME280;3142;48.206;11.550;2023-11-19T07:21:26;95629.09;;;10.24;100.00
6218;BME280;3142;48.206;11.550;2023-11-19T07:23:53;95631.31;;;10.27;100.00
6218;BME280;3142;48.206;11.550;2023-11-19T07:26:20;95629.50;;;10.28;100.00
6218;BME280;3142;48.206;11.550;2023-11-19T07:28:47;95640.38;;;10.31;100.00
6218;BME280;3142;48.206;11.550;2023-11-19T07:31:13;95641.97;;;10.32;100.00
6218;BME280;3142;48.206;11.550;2023-11-19T07:33:40;95639.16;;;10.34;100.00
6218;BME280;3142;48.206;11.550;2023-11-19T07:36:08;95649.03;;;10.38;100.00
6218;BME280;3142;48.206;11.550;2023-11-19T07:38:36;95659.47;;;10.38;100.00
6218;BME280;3142;48.206;11.550;2023-11-19T07:41:02;95657.28;;;10.42;100.00
6218;BME280;3142;48.206;11.550;2023-11-19T07:43:30;95664.13;;;10.43;100.00
6218;BME280;3142;48.206;11.550;2023-11-19T07:45:56;95661.91;;;10.40;100.00
6218;BME280;3142;48.206;11.550;2023-11-19T07:48:24;95665.16;;;10.42;100.00
6218;BME280;3142;48.206;11.550;2023-11-19T07:50:52;95665.16;;;10.42;100.00
6218;BME280;3142;48.206;11.550;2023-11-19T07:53:19;95673.38;;;10.46;100.00
6218;BME280;3142;48.206;11.550;2023-11-19T07:55:47;95664.53;;;10.47;100.00
6218;BME280;3142;48.206;11.550;2023-11-19T07:58:13;95665.94;;;10.49;100.00
6218;BME280;3142;48.206;11.550;2023-11-19T08:00:40;95669.34;;;10.50;100.00
6218;BME280;3142;48.206;11.550;2023-11-19T08:03:06;95663.72;;;10.53;100.00
6218;BME280;3142;48.206;11.550;2023-11-19T08:05:33;95663.34;;;10.56;100.00
6218;BME280;3142;48.206;11.550;2023-11-19T08:08:00;95655.91;;;10.59;100.00
6218;BME280;3142;48.206;11.550;2023-11-19T08:10:27;95670.38;;;10.62;100.00
6218;BME280;3142;48.206;11.550;2023-11-19T08:12:55;95667.16;;;10.66;100.00
6218;BME280;3142;48.206;11.550;2023-11-19T08:15:21;95668.59;;;10.69;100.00
6218;BME280;3142;48.206;11.550;2023-11-19T08:17:48;95674.41;;;10.71;100.00
6218;BME280;3142;48.206;11.550;2023-11-19T08:20:14;95671.78;;;10.78;100.00
6218;BME280;3142;48.206;11.550;2023-11-19T08:22:41;95671.59;;;10.79;100.00
6218;BME280;3142;48.206;11.550;2023-11-19T08:25:08;95664.16;;;10.83;100.00
6218;BME280;3142;48.206;11.550;2023-11-19T08:27:33;95677.63;;;10.86;100.00
6218;BME280;3142;48.206;11.550;2023-11-19T08:30:01;95672.59;;;10.85;100.00
6218;BME280;3142;48.206;11.550;2023-11-19T08:32:28;95679.44;;;10.86;100.00
6218;BME280;3142;48.206;11.550;2023-11-19T08:34:54;95680.06;;;10.88;100.00
6218;BME280;3142;48.206;11.550;2023-11-19T08:37:21;95679.03;;;10.89;100.00
6218;BME280;3142;48.206;11.550;2023-11-19T08:39:47;95679.44;;;10.86;100.00
6218;BME280;3142;48.206;11.550;2023-11-19T08:42:14;95678.44;;;10.87;100.00
6218;BME280;3142;48.206;11.550;2023-11-19T08:44:41;95675.63;;;10.88;100.00
6218;BME280;3142;48.206;11.550;2023-11-19T08:47:11;95669.59;;;10.88;100.00
6218;BME280;3142;48.206;11.550;2023-11-19T08:49:37;95673.81;;;10.89;100.00
6218;BME280;3142;48.206;11.550;2023-11-19T08:52:04;95686.91;;;10.89;100.00
6218;BME280;3142;48.206;11.550;2023-11-19T08:54:32;95677.81;;;10.91;100.00
6218;BME280;3142;48.206;11.550;2023-11-19T08:56:59;95682.06;;;10.92;100.00
6218;BME280;3142;48.206;11.550;2023-11-19T08:59:25;95682.06;;;10.92;100.00
6218;BME280;3142;48.206;11.550;2023-11-19T09:01:52;95671.81;;;10.97;100.00
6218;BME280;3142;48.206;11.550;2023-11-19T09:04:20;95674.81;;;11.01;100.00
6218;BME280;3142;48.206;11.550;2023-11-19T09:06:47;95671.97;;;11.03;100.00
6218;BME280;3142;48.206;11.550;2023-11-19T09:09:14;95679.63;;;11.04;100.00
6218;BME280;3142;48.206;11.550;2023-11-19T09:11:40;95668.75;;;11.07;100.00
6218;BME280;3142;48.206;11.550;2023-11-19T09:14:07;95662.28;;;11.10;100.00
6218;BME280;3142;48.206;11.550;2023-11-19T09:16:34;95666.94;;;11.14;100.00
6218;BME280;3142;48.206;11.550;2023-11-19T09:19:00;95675.38;;;11.23;100.00
6218;BME280;3142;48.206;11.550;2023-11-19T09:21:29;95681.22;;;11.32;100.00
6218;BME280;3142;48.206;11.550;2023-11-19T09:23:55;95681.38;;;11.37;100.00
6218;BME280;3142;48.206;11.550;2023-11-19T09:26:22;95682.59;;;11.41;100.00
6218;BME280;3142;48.206;11.550;2023-11-19T09:28:49;95676.53;;;11.47;100.00
6218;BME280;3142;48.206;11.550;2023-11-19T09:31:17;95690.22;;;11.49;100.00
6218;BME280;3142;48.206;11.550;2023-11-19T09:33:44;95678.13;;;11.54;100.00
6218;BME280;3142;48.206;11.550;2023-11-19T09:36:12;95691.25;;;11.54;100.00
6218;BME280;3142;48.206;11.550;2023-11-19T09:38:41;95694.25;;;11.58;100.00
6218;BME280;3142;48.206;11.550;2023-11-19T09:41:07;95687.41;;;11.57;100.00
6218;BME280;3142;48.206;11.550;2023-11-19T09:43:39;95686.97;;;11.60;100.00
6218;BME280;3142;48.206;11.550;2023-11-19T09:46:08;95692.22;;;11.60;100.00
6218;BME280;3142;48.206;11.550;2023-11-19T09:48:37;95685.59;;;11.57;100.00
6218;BME280;3142;48.206;11.550;2023-11-19T09:51:06;95673.50;;;11.56;100.00
6218;BME280;3142;48.206;11.550;2023-11-19T09:53:33;95674.28;;;11.57;100.00
6218;BME280;3142;48.206;11.550;2023-11-19T09:56:02;95673.06;;;11.60;100.00
6218;BME280;3142;48.206;11.550;2023-11-19T09:58:29;95671.63;;;11.64;100.00
6218;BME280;3142;48.206;11.550;2023-11-19T10:00:56;95657.31;;;11.73;100.00
6218;BME280;3142;48.206;11.550;2023-11-19T10:03:25;95658.25;;;11.92;100.00
6218;BME280;3142;48.206;11.550;2023-11-19T10:05:53;95660.81;;;12.05;100.00
6218;BME280;3142;48.206;11.550;2023-11-19T10:08:21;95650.03;;;12.20;100.00
6218;BME280;3142;48.206;11.550;2023-11-19T10:10:47;95650.75;;;12.33;100.00
6218;BME280;3142;48.206;11.550;2023-11-19T10:13:15;95640.25;;;12.40;100.00
6218;BME280;3142;48.206;11.550;2023-11-19T10:15:43;95645.91;;;12.37;100.00
6218;BME280;3142;48.206;11.550;2023-11-19T10:18:10;95643.28;;;12.37;99.44
6218;BME280;3142;48.206;11.550;2023-11-19T10:20:37;95641.78;;;12.79;97.15
6218;BME280;3142;48.206;11.550;2023-11-19T10:23:04;95638.38;;;13.22;96.23
6218;BME280;3142;48.206;11.550;2023-11-19T10:25:30;95627.88;;;13.15;95.03
6218;BME280;3142;48.206;11.550;2023-11-19T10:27:58;95635.25;;;13.07;94.85
6218;BME280;3142;48.206;11.550;2023-11-19T10:30:27;95629.78;;;13.08;94.45
6218;BME280;3142;48.206;11.550;2023-11-19T10:33:03;95637.00;;;13.13;93.91
6218;BME280;3142;48.206;11.550;2023-11-19T10:35:31;95637.19;;;13.18;94.57
6218;BME280;3142;48.206;11.550;2023-11-19T10:37:59;95618.13;;;13.04;94.07
6218;BME280;3142;48.206;11.550;2023-11-19T10:40:37;95610.06;;;12.99;94.14
6218;BME280;3142;48.206;11.550;2023-11-19T10:43:04;95625.81;;;12.99;93.28
6218;BME280;3142;48.206;11.550;2023-11-19T10:45:34;95623.38;;;13.04;93.55
6218;BME280;3142;48.206;11.550;2023-11-19T10:48:02;95629.00;;;13.08;91.71
6218;BME280;3142;48.206;11.550;2023-11-19T10:50:29;95631.66;;;13.26;92.44
6218;BME280;3142;48.206;11.550;2023-11-19T10:52:57;95601.81;;;13.20;90.80
6218;BME280;3142;48.206;11.550;2023-11-19T10:55:27;95618.03;;;13.11;91.40
6218;BME280;3142;48.206;11.550;2023-11-19T10:57:58;95611.41;;;13.08;91.51
6218;BME280;3142;48.206;11.550;2023-11-19T11:00:26;95618.38;;;13.39;91.44
6218;BME280;3142;48.206;11.550;2023-11-19T11:02:56;95602.66;;;13.69;90.01
6218;BME280;3142;48.206;11.550;2023-11-19T11:05:26;95601.63;;;13.88;89.78
6218;BME280;3142;48.206;11.550;2023-11-19T11:07:55;95602.94;;;14.09;88.46
6218;BME280;3142;48.206;11.550;2023-11-19T11:10:26;95595.25;;;14.26;87.39
6218;BME280;3142;48.206;11.550;2023-11-19T11:12:52;95591.50;;;14.04;86.80
6218;BME280;3142;48.206;11.550;2023-11-19T11:15:26;95602.53;;;13.94;87.04
6218;BME280;3142;48.206;11.550;2023-11-19T11:17:59;95602.47;;;14.01;86.97
6218;BME280;3142;48.206;11.550;2023-11-19T11:20:27;95603.94;;;14.27;86.31
6218;BME280;3142;48.206;11.550;2023-11-19T11:23:16;95593.72;;;14.18;85.85
6218;BME280;3142;48.206;11.550;2023-11-19T11:25:54;95602.72;;;14.11;86.48
6218;BME280;3142;48.206;11.550;2023-11-19T11:28:33;95588.13;;;14.27;85.70
6218;BME280;3142;48.206;11.550;2023-11-19T11:31:23;95603.81;;;14.33;86.48
6218;BME280;3142;48.206;11.550;2023-11-19T11:34:16;95596.25;;;14.55;84.07
6218;BME280;3142;48.206;11.550;2023-11-19T11:36:53;95594.59;;;14.42;84.55
6218;BME280;3142;48.206;11.550;2023-11-19T11:39:24;95592.47;;;14.74;83.52
6218;BME280;3142;48.206;11.550;2023-11-19T11:42:30;95586.97;;;14.88;82.97
6218;BME280;3142;48.206;11.550;2023-11-19T11:45:01;95568.44;;;14.71;83.43
6218;BME280;3142;48.206;11.550;2023-11-19T11:50:33;95568.16;;;15.07;81.32
6218;BME280;3142;48.206;11.550;2023-11-19T11:53:13;95580.91;;;14.99;81.08
6218;BME280;3142;48.206;11.550;2023-11-19T11:55:53;95579.53;;;14.96;81.69
6218;BME280;3142;48.206;11.550;2023-11-19T11:58:20;95597.19;;;14.96;80.82
6218;BME280;3142;48.206;11.550;2023-11-19T12:00:48;95574.13;;;14.79;81.04
6218;BME280;3142;48.206;11.550;2023-11-19T12:03:19;95587.09;;;14.93;81.21
6218;BME280;3142;48.206;11.550;2023-11-19T12:05:48;95576.78;;;14.91;79.98
6218;BME280;3142;48.206;11.550;2023-11-19T12:08:16;95569.81;;;14.97;79.63
6218;BME280;3142;48.206;11.550;2023-11-19T12:10:46;95572.88;;;15.05;79.96
6218;BME280;3142;48.206;11.550;2023-11-19T12:13:14;95564.38;;;15.15;78.98
6218;BME280;3142;48.206;11.550;2023-11-19T12:16:08;95581.09;;;15.21;77.54
6218;BME280;3142;48.206;11.550;2023-11-19T12:18:34;95570.47;;;15.16;77.78
6218;BME280;3142;48.206;11.550;2023-11-19T12:21:02;95573.78;;;15.23;78.22
6218;BME280;3142;48.206;11.550;2023-11-19T12:23:31;95582.28;;;15.13;78.84
6218;BME280;3142;48.206;11.550;2023-11-19T12:25:58;95583.97;;;15.07;78.10
6218;BME280;3142;48.206;11.550;2023-11-19T12:28:25;95558.09;;;15.04;78.18
6218;BME280;3142;48.206;11.550;2023-11-19T12:30:52;95563.38;;;15.04;77.92
6218;BME280;3142;48.206;11.550;2023-11-19T12:33:19;95544.44;;;15.19;77.15
6218;BME280;3142;48.206;11.550;2023-11-19T12:35:47;95540.34;;;15.11;76.81
6218;BME280;3142;48.206;11.550;2023-11-19T12:38:22;95546.66;;;14.99;77.16
6218;BME280;3142;48.206;11.550;2023-11-19T12:41:02;95538.63;;;14.94;76.94
6218;BME280;3142;48.206;11.550;2023-11-19T12:43:29;95528.00;;;14.89;77.65
6218;BME280;3142;48.206;11.550;2023-11-19T12:45:55;95538.19;;;14.85;76.60
6218;BME280;3142;48.206;11.550;2023-11-19T12:48:22;95538.41;;;14.95;75.94
6218;BME280;3142;48.206;11.550;2023-11-19T12:50:52;95526.00;;;15.07;76.61
6218;BME280;3142;48.206;11.550;2023-11-19T12:53:19;95537.59;;;15.06;75.64
6218;BME280;3142;48.206;11.550;2023-11-19T12:55:46;95522.81;;;14.94;76.54
6218;BME280;3142;48.206;11.550;2023-11-19T12:58:28;95537.41;;;14.85;76.00
6218;BME280;3142;48.206;11.550;2023-11-19T13:00:59;95532.94;;;14.73;76.89
6218;BME280;3142;48.206;11.550;2023-11-19T13:03:29;95535.88;;;14.65;76.99
6218;BME280;3142;48.206;11.550;2023-11-19T13:06:01;95523.09;;;14.69;75.89
6218;BME280;3142;48.206;11.550;2023-11-19T13:08:28;95522.28;;;14.68;76.67
6218;BME280;3142;48.206;11.550;2023-11-19T13:10:55;95529.72;;;14.60;76.72
6218;BME280;3142;48.206;11.550;2023-11-19T13:13:22;95543.81;;;14.54;76.90
6218;BME280;3142;48.206;11.550;2023-11-19T13:15:48;95523.06;;;14.45;77.23
6218;BME280;3142;48.206;11.550;2023-11-19T13:18:16;95516.88;;;14.40;77.60